Time;durP1;ratioP1;P1;durP2;ratioP2;P2;SDS_P1;SDS_P2;PMS_P1;PMS_P2;Temp;Humidity;BMP_temperature;BMP_pressure;BME280_temperature;BME280_humidity;BME280_pressure;Samples;Min_cycle;Max_cycle;Signal;HPM_P1;HPM_P2
2024/01/30 00:00:53;;;;;;;5.10;3.50;;;;;;;9.40;58.61;98454.03;4967052;28;20027;-79
2024/01/30 00:03:18;;;;;;;4.38;3.08;;;;;;;9.23;58.69;98447.66;4976089;28;20160;-79
2024/01/30 00:05:44;;;;;;;4.40;3.78;;;;;;;9.27;60.10;98448.84;4979602;28;20558;-86
2024/01/30 00:08:09;;;;;;;4.82;3.20;;;;;;;9.38;59.96;98458.63;4958579;28;20035;-85
2024/01/30 00:10:34;;;;;;;4.97;3.20;;;;;;;9.44;60.25;98455.22;4963285;28;20513;-85
2024/01/30 00:13:00;;;;;;;4.53;3.08;;;;;;;9.47;59.65;98454.00;4963665;28;20355;-86
2024/01/30 00:15:25;;;;;;;4.32;3.13;;;;;;;9.53;60.06;98455.78;4993676;28;20294;-84
2024/01/30 00:17:52;;;;;;;4.90;3.45;;;;;;;9.57;59.81;98449.94;4964753;28;20458;-87
2024/01/30 00:20:17;;;;;;;4.57;3.63;;;;;;;9.57;59.34;98456.97;4980635;28;20399;-86
2024/01/30 00:22:43;;;;;;;3.10;2.72;;;;;;;9.42;59.74;98454.59;4971943;28;20034;-86
2024/01/30 00:25:08;;;;;;;4.93;3.20;;;;;;;9.44;59.15;98457.00;4959667;28;20278;-86
2024/01/30 00:27:34;;;;;;;4.85;3.20;;;;;;;9.33;59.72;98453.25;4958660;28;20548;-86
2024/01/30 00:29:59;;;;;;;4.93;3.30;;;;;;;9.47;59.89;98456.59;4953497;28;20038;-86
2024/01/30 00:32:24;;;;;;;4.78;3.20;;;;;;;9.45;59.44;98454.19;4940272;28;20030;-84
2024/01/30 00:34:50;;;;;;;5.72;3.38;;;;;;;9.46;59.49;98458.41;4970970;28;20486;-86
2024/01/30 00:37:15;;;;;;;4.78;3.75;;;;;;;9.48;59.96;98451.19;4958764;28;20073;-85
2024/01/30 00:39:40;;;;;;;7.13;3.45;;;;;;;9.50;60.39;98456.19;4955184;28;20038;-83
2024/01/30 00:42:06;;;;;;;4.10;3.28;;;;;;;9.51;60.45;98453.41;4968369;28;20039;-86
2024/01/30 00:44:35;;;;;;;5.05;3.35;;;;;;;9.59;60.00;98460.16;4962776;28;20034;-86
2024/01/30 00:47:00;;;;;;;4.93;3.17;;;;;;;9.63;59.89;98452.75;4980959;28;20027;-86
2024/01/30 00:49:25;;;;;;;4.45;3.45;;;;;;;9.65;59.09;98445.56;4975274;28;20038;-86
2024/01/30 00:51:51;;;;;;;4.85;2.90;;;;;;;9.69;59.10;98454.53;5005744;28;20068;-86
2024/01/30 00:54:16;;;;;;;5.93;4.20;;;;;;;9.70;58.92;98453.53;4947708;28;20035;-86
2024/01/30 00:56:41;;;;;;;5.63;3.78;;;;;;;9.78;58.89;98455.88;4956883;28;20034;-79
2024/01/30 00:59:07;;;;;;;5.75;3.58;;;;;;;9.74;58.87;98452.09;4979227;28;20027;-79
2024/01/30 01:01:32;;;;;;;5.78;3.38;;;;;;;9.69;58.77;98446.72;4968364;28;20034;-79
2024/01/30 01:03:58;;;;;;;4.72;3.10;;;;;;;9.72;58.49;98446.31;4959796;28;20067;-79
2024/01/30 01:06:23;;;;;;;5.53;3.40;;;;;;;9.58;58.74;98450.78;5008747;28;20131;-79
2024/01/30 01:08:48;;;;;;;4.35;3.20;;;;;;;9.73;58.27;98453.09;4966503;28;20041;-79
2024/01/30 01:11:14;;;;;;;4.97;3.40;;;;;;;9.78;58.02;98448.06;4964221;28;20030;-79
2024/01/30 01:13:39;;;;;;;4.88;3.40;;;;;;;9.80;58.43;98447.88;4952854;28;20022;-79
2024/01/30 01:16:05;;;;;;;5.93;3.42;;;;;;;9.87;57.84;98453.81;4946258;28;20035;-79
2024/01/30 01:18:31;;;;;;;4.93;3.55;;;;;;;9.91;58.19;98444.63;4948830;28;20038;-86
2024/01/30 01:20:56;;;;;;;5.00;3.80;;;;;;;9.91;57.73;98445.41;4977570;28;20524;-87
2024/01/30 01:23:21;;;;;;;4.35;3.05;;;;;;;10.03;57.12;98448.16;5008082;28;20028;-82
2024/01/30 01:25:47;;;;;;;4.97;2.97;;;;;;;10.06;57.73;98446.94;4942730;28;20121;-86
2024/01/30 01:28:12;;;;;;;4.78;3.33;;;;;;;9.95;57.27;98445.78;4940805;28;20487;-84
2024/01/30 01:30:41;;;;;;;4.20;3.47;;;;;;;10.09;56.83;98449.09;4978962;28;20387;-84
2024/01/30 01:33:07;;;;;;;6.68;4.40;;;;;;;10.09;57.02;98447.31;4970981;28;20081;-83
2024/01/30 01:35:32;;;;;;;4.70;3.25;;;;;;;10.12;56.19;98451.28;4969870;28;20026;-84
2024/01/30 01:37:59;;;;;;;5.25;3.83;;;;;;;10.17;56.30;98456.69;4966703;28;20475;-84
2024/01/30 01:40:26;;;;;;;7.35;3.60;;;;;;;10.20;56.57;98447.66;4955418;28;20042;-84
2024/01/30 01:42:52;;;;;;;5.57;3.05;;;;;;;10.16;56.00;98449.06;4964445;28;20035;-85
2024/01/30 01:45:18;;;;;;;3.92;3.03;;;;;;;10.12;55.93;98446.09;4963706;28;20030;-87
2024/01/30 01:47:46;;;;;;;4.22;3.45;;;;;;;10.14;56.14;98451.88;4972253;28;20038;-86
2024/01/30 01:50:13;;;;;;;5.47;3.38;;;;;;;10.10;56.30;98456.72;4970382;28;20039;-85
2024/01/30 01:52:40;;;;;;;8.38;3.97;;;;;;;10.13;56.06;98447.69;4962932;28;20486;-83
2024/01/30 01:55:06;;;;;;;5.57;3.63;;;;;;;10.08;56.04;98458.72;4949982;28;20034;-82
2024/01/30 01:57:34;;;;;;;5.00;3.45;;;;;;;10.16;56.33;98444.69;4951139;28;20033;-82
2024/01/30 02:00:01;;;;;;;6.68;3.28;;;;;;;10.22;55.32;98449.03;4967440;28;20530;-85
2024/01/30 02:02:30;;;;;;;3.83;3.22;;;;;;;10.21;55.30;98447.47;4941706;28;20109;-84
2024/01/30 02:04:56;;;;;;;4.78;3.05;;;;;;;10.29;55.15;98449.78;4961935;28;20033;-85
2024/01/30 02:07:22;;;;;;;4.03;2.85;;;;;;;10.34;54.69;98448.41;4955461;28;20506;-79
2024/01/30 02:09:47;;;;;;;5.55;3.83;;;;;;;10.33;54.38;98438.97;4961108;28;20246;-78
2024/01/30 02:12:13;;;;;;;5.60;3.85;;;;;;;10.34;54.95;98453.59;4985732;28;20066;-79
2024/01/30 02:14:46;;;;;;;6.13;3.35;;;;;;;10.34;54.58;98445.78;4943210;28;20034;-79
2024/01/30 02:17:12;;;;;;;6.72;3.70;;;;;;;10.29;54.53;98444.56;4965108;28;20034;-78
2024/01/30 02:19:37;;;;;;;4.00;3.05;;;;;;;10.09;55.31;98442.13;4963238;28;20505;-79
2024/01/30 02:22:03;;;;;;;4.57;3.30;;;;;;;10.24;54.36;98436.59;4980007;28;20034;-79
2024/01/30 02:24:28;;;;;;;4.88;3.33;;;;;;;10.24;54.60;98441.81;4971987;28;20031;-78
2024/01/30 02:26:53;;;;;;;5.30;3.78;;;;;;;10.18;54.62;98434.84;4957711;28;20557;-79
2024/01/30 02:29:19;;;;;;;5.13;3.35;;;;;;;10.38;54.35;98441.75;4945554;28;20159;-84
2024/01/30 02:31:45;;;;;;;5.72;3.30;;;;;;;10.31;54.20;98436.56;4989442;28;20119;-85
2024/01/30 02:34:11;;;;;;;7.43;3.58;;;;;;;10.19;54.56;98427.84;4941060;28;20046;-84
2024/01/30 02:36:36;;;;;;;7.05;3.63;;;;;;;10.25;54.53;98425.19;4973475;28;20039;-84
2024/01/30 02:39:02;;;;;;;5.40;3.60;;;;;;;10.25;54.63;98430.41;4949414;28;20427;-84
2024/01/30 02:41:27;;;;;;;4.38;3.70;;;;;;;10.20;54.55;98432.03;4986964;28;20083;-86
2024/01/30 02:43:53;;;;;;;4.55;3.58;;;;;;;10.20;54.21;98429.44;4960845;28;20038;-86
2024/01/30 02:46:18;;;;;;;5.72;3.15;;;;;;;10.24;53.88;98428.78;4959259;28;20387;-83
2024/01/30 02:48:44;;;;;;;4.72;3.30;;;;;;;10.14;54.55;98433.66;4954121;28;20100;-83
2024/01/30 02:51:09;;;;;;;5.93;3.47;;;;;;;10.17;54.02;98433.25;4954284;28;20056;-82
2024/01/30 02:53:35;;;;;;;6.30;3.47;;;;;;;10.19;54.44;98435.66;4946188;28;20035;-83
2024/01/30 02:56:02;;;;;;;5.03;3.28;;;;;;;10.04;54.82;98438.53;4995247;28;20437;-84
2024/01/30 02:58:28;;;;;;;5.28;3.83;;;;;;;9.92;55.12;98435.78;4974117;28;20088;-83
2024/01/30 03:00:53;;;;;;;4.70;3.25;;;;;;;9.97;54.72;98428.16;4976292;28;20035;-86
2024/01/30 03:03:18;;;;;;;5.35;3.45;;;;;;;9.92;54.46;98425.38;4952277;28;20034;-84
2024/01/30 03:05:44;;;;;;;5.95;3.45;;;;;;;9.85;55.39;98435.03;4968030;28;20077;-85
2024/01/30 03:08:09;;;;;;;3.28;2.67;;;;;;;9.88;54.82;98429.41;4986568;28;20038;-84
2024/01/30 03:10:34;;;;;;;4.60;3.40;;;;;;;9.86;54.45;98424.41;4957915;28;20045;-83
2024/01/30 03:13:00;;;;;;;4.18;3.47;;;;;;;9.94;54.44;98429.38;5009312;28;20477;-85
2024/01/30 03:15:25;;;;;;;5.07;3.33;;;;;;;9.93;54.79;98438.19;4955179;28;20042;-84
2024/01/30 03:17:50;;;;;;;3.78;2.60;;;;;;;9.91;54.94;98435.00;4975859;28;20133;-85
2024/01/30 03:20:16;;;;;;;4.70;2.92;;;;;;;9.88;54.30;98432.81;4967571;28;20026;-85
2024/01/30 03:22:41;;;;;;;5.15;2.90;;;;;;;9.97;54.76;98432.56;4947143;28;20031;-85
2024/01/30 03:25:07;;;;;;;4.93;3.50;;;;;;;9.97;54.09;98432.56;4973654;28;20050;-84
2024/01/30 03:27:32;;;;;;;4.35;3.08;;;;;;;9.96;54.19;98438.81;5004609;28;20039;-84
2024/01/30 03:29:58;;;;;;;6.45;3.10;;;;;;;9.85;54.39;98433.25;4976965;28;20032;-85
2024/01/30 03:32:23;;;;;;;6.43;2.80;;;;;;;9.89;54.07;98426.63;4939526;28;20037;-84
2024/01/30 03:34:48;;;;;;;4.25;3.30;;;;;;;9.88;54.61;98434.63;4959690;28;20513;-84
2024/01/30 03:37:14;;;;;;;3.72;2.75;;;;;;;9.91;53.99;98435.00;4978234;28;20080;-84
2024/01/30 03:39:39;;;;;;;4.05;2.88;;;;;;;9.85;54.49;98430.66;4963516;28;20042;-83
2024/01/30 03:42:05;;;;;;;3.90;2.97;;;;;;;9.92;53.99;98428.00;4977004;28;20022;-84
2024/01/30 03:44:30;;;;;;;4.75;3.42;;;;;;;9.88;53.79;98422.41;4953580;28;20068;-87
2024/01/30 03:46:55;;;;;;;3.53;2.80;;;;;;;9.85;54.26;98429.84;4958528;28;20030;-82
2024/01/30 03:49:21;;;;;;;3.95;3.30;;;;;;;9.93;54.35;98419.97;4960425;28;20133;-86
2024/01/30 03:51:47;;;;;;;4.43;2.83;;;;;;;9.89;54.08;98421.41;4962290;28;20446;-84
2024/01/30 03:54:13;;;;;;;4.78;3.10;;;;;;;9.93;53.67;98419.97;5025017;28;20039;-86
2024/01/30 03:56:38;;;;;;;4.25;3.05;;;;;;;9.80;54.56;98421.84;4960180;28;20034;-83
2024/01/30 03:59:04;;;;;;;4.25;3.30;;;;;;;9.96;53.47;98425.78;4973703;28;20047;-85
2024/01/30 04:01:29;;;;;;;4.28;3.30;;;;;;;9.88;54.16;98427.59;4959635;28;20525;-84
2024/01/30 04:03:54;;;;;;;5.45;2.95;;;;;;;9.89;54.36;98426.63;4961531;28;20066;-84
2024/01/30 04:06:20;;;;;;;5.20;3.38;;;;;;;9.90;54.21;98430.81;4959331;28;20039;-87
2024/01/30 04:08:46;;;;;;;4.18;2.60;;;;;;;9.87;54.23;98427.81;4974145;28;20263;-85
2024/01/30 04:11:12;;;;;;;4.03;3.13;;;;;;;9.80;54.29;98420.06;4967862;28;20030;-83
2024/01/30 04:13:37;;;;;;;5.30;2.97;;;;;;;9.97;53.71;98422.94;4973001;28;20039;-84
2024/01/30 04:16:03;;;;;;;4.88;2.58;;;;;;;9.89;53.96;98421.41;4959380;28;20065;-84
2024/01/30 04:18:29;;;;;;;3.55;3.10;;;;;;;9.89;53.93;98425.81;4948367;28;20172;-84
2024/01/30 04:20:54;;;;;;;5.10;3.42;;;;;;;9.82;53.79;98425.84;4977777;28;20038;-85
2024/01/30 04:23:19;;;;;;;4.68;3.05;;;;;;;9.80;54.24;98430.47;4975598;28;20042;-84
2024/01/30 04:25:45;;;;;;;5.65;2.65;;;;;;;9.77;53.87;98417.88;4949849;28;20030;-84
2024/01/30 04:28:13;;;;;;;3.47;2.63;;;;;;;9.72;54.13;98421.09;4971390;28;20030;-79
2024/01/30 04:30:39;;;;;;;5.35;3.20;;;;;;;9.74;54.29;98415.69;4982130;28;20062;-79
2024/01/30 04:33:04;;;;;;;5.07;3.28;;;;;;;9.69;54.61;98426.69;5009329;28;20540;-79
2024/01/30 04:35:30;;;;;;;5.75;3.20;;;;;;;9.70;54.03;98424.91;4975367;28;20117;-79
2024/01/30 04:37:55;;;;;;;3.92;3.25;;;;;;;9.69;54.32;98421.50;5009864;28;20046;-79
2024/01/30 04:40:21;;;;;;;4.85;3.03;;;;;;;9.63;54.52;98424.13;4961311;28;20136;-79
2024/01/30 04:42:46;;;;;;;4.40;3.15;;;;;;;9.69;53.78;98421.50;4978034;28;20053;-79
2024/01/30 04:45:12;;;;;;;4.00;2.90;;;;;;;9.65;54.47;98425.53;4964987;28;20469;-78
2024/01/30 04:47:38;;;;;;;4.20;3.17;;;;;;;9.74;54.49;98428.69;4994048;28;20034;-79
2024/01/30 04:50:06;;;;;;;5.30;2.97;;;;;;;9.83;54.65;98424.84;4960132;28;20062;-79
2024/01/30 04:52:31;;;;;;;4.65;3.17;;;;;;;9.69;54.16;98420.72;4966485;28;20090;-79
2024/01/30 04:54:57;;;;;;;4.93;3.50;;;;;;;9.85;53.95;98430.66;4969201;28;20046;-79
2024/01/30 04:57:22;;;;;;;5.28;3.38;;;;;;;9.82;54.41;98428.47;4988892;28;20303;-78
2024/01/30 04:59:47;;;;;;;4.55;3.40;;;;;;;9.82;54.20;98431.06;4972307;28;20038;-79
2024/01/30 05:02:13;;;;;;;4.97;3.10;;;;;;;9.82;54.56;98425.03;4971006;28;20041;-79
2024/01/30 05:04:40;;;;;;;4.80;3.17;;;;;;;9.88;54.17;98435.41;4958778;28;20087;-79
2024/01/30 05:07:06;;;;;;;3.92;2.80;;;;;;;9.79;54.18;98433.28;4984169;28;20044;-79
2024/01/30 05:09:31;;;;;;;5.93;3.55;;;;;;;9.70;55.05;98435.31;4938757;28;20066;-78
2024/01/30 05:11:56;;;;;;;4.35;2.95;;;;;;;9.70;54.36;98437.94;4977631;28;20036;-79
2024/01/30 05:14:22;;;;;;;3.90;2.78;;;;;;;9.84;54.13;98438.66;4945404;28;20031;-78
2024/01/30 05:16:47;;;;;;;4.35;2.95;;;;;;;9.76;54.67;98437.06;4969028;28;20514;-79
2024/01/30 05:19:14;;;;;;;4.15;2.88;;;;;;;9.76;54.77;98444.88;4965028;28;20046;-78
2024/01/30 05:21:39;;;;;;;5.28;3.53;;;;;;;9.75;54.69;98432.91;4948709;28;20026;-78
2024/01/30 05:24:05;;;;;;;5.47;3.28;;;;;;;9.83;54.29;98445.66;4978863;28;20480;-79
2024/01/30 05:26:30;;;;;;;4.78;3.30;;;;;;;9.89;54.51;98441.44;4950690;28;20027;-80
2024/01/30 05:28:57;;;;;;;6.38;4.28;;;;;;;9.85;54.54;98442.84;5002006;28;20039;-79
2024/01/30 05:31:22;;;;;;;5.30;3.60;;;;;;;9.87;54.30;98441.63;4956037;28;20061;-78
2024/01/30 05:33:47;;;;;;;4.43;3.60;;;;;;;9.75;54.14;98440.69;5024520;28;20042;-78
2024/01/30 05:36:13;;;;;;;5.63;3.30;;;;;;;9.75;54.61;98440.69;4947076;28;20029;-79
2024/01/30 05:38:38;;;;;;;5.75;3.22;;;;;;;9.68;54.67;98447.72;4947303;28;20034;-79
2024/01/30 05:41:04;;;;;;;3.88;3.47;;;;;;;9.82;54.44;98446.66;4965640;28;20033;-80
2024/01/30 05:43:29;;;;;;;4.82;3.30;;;;;;;9.80;54.23;98453.06;4977650;28;20530;-79
2024/01/30 05:45:55;;;;;;;5.03;3.10;;;;;;;9.75;53.98;98451.09;4966194;28;20678;-79
2024/01/30 05:48:20;;;;;;;4.70;3.55;;;;;;;9.78;54.60;98444.69;4981102;28;20117;-79
2024/01/30 05:50:46;;;;;;;5.32;3.38;;;;;;;9.69;54.89;98447.50;4973876;28;20038;-79
2024/01/30 05:53:11;;;;;;;4.68;3.63;;;;;;;9.66;54.50;98452.31;4969071;28;20042;-79
2024/01/30 05:55:37;;;;;;;5.60;3.28;;;;;;;9.65;54.61;98445.56;4959809;28;20038;-78
2024/01/30 05:58:02;;;;;;;5.03;3.50;;;;;;;9.60;55.32;98443.56;4978221;28;20042;-78
2024/01/30 06:00:28;;;;;;;6.22;3.40;;;;;;;9.64;54.50;98449.94;4953027;28;20095;-86
2024/01/30 06:02:53;;;;;;;5.63;3.42;;;;;;;9.57;54.93;98447.34;4967118;28;20030;-86
2024/01/30 06:05:18;;;;;;;5.32;3.70;;;;;;;9.49;55.64;98452.00;4950759;28;20215;-84
2024/01/30 06:07:44;;;;;;;6.40;3.55;;;;;;;9.56;55.36;98453.56;4956124;28;20664;-85
2024/01/30 06:10:09;;;;;;;5.90;3.72;;;;;;;9.55;55.45;98454.56;4971081;28;20541;-83
2024/01/30 06:12:35;;;;;;;5.68;3.85;;;;;;;9.63;54.77;98448.34;4954574;28;20023;-84
2024/01/30 06:15:01;;;;;;;3.78;2.97;;;;;;;9.59;55.34;98454.94;4954895;28;20387;-86
2024/01/30 06:17:26;;;;;;;4.25;3.58;;;;;;;9.51;54.96;98448.19;4985994;28;20067;-86
2024/01/30 06:19:52;;;;;;;4.72;3.45;;;;;;;9.51;55.46;98437.78;4971010;28;20231;-86
2024/01/30 06:22:20;;;;;;;5.32;3.30;;;;;;;9.48;55.02;98440.81;4967981;28;20515;-82
2024/01/30 06:24:47;;;;;;;5.80;4.07;;;;;;;9.46;55.91;98445.41;4952797;28;20121;-84
2024/01/30 06:27:13;;;;;;;5.68;4.03;;;;;;;9.50;55.67;98444.00;4961958;28;20033;-83
2024/01/30 06:29:38;;;;;;;6.95;4.30;;;;;;;9.47;55.64;98441.00;4949259;28;20030;-85
2024/01/30 06:32:04;;;;;;;4.85;3.67;;;;;;;9.47;55.66;98438.41;4962265;28;20035;-85
2024/01/30 06:34:30;;;;;;;6.25;3.45;;;;;;;9.39;55.83;98439.44;4978493;28;20520;-84
2024/01/30 06:36:55;;;;;;;6.07;3.75;;;;;;;9.31;55.75;98440.44;4952012;28;20027;-85
2024/01/30 06:39:21;;;;;;;6.60;3.75;;;;;;;9.24;56.27;98428.50;4982356;28;20392;-82
2024/01/30 06:41:46;;;;;;;5.43;3.63;;;;;;;9.31;55.92;98444.84;4977609;28;20103;-86
2024/01/30 06:44:12;;;;;;;4.47;3.47;;;;;;;9.33;55.91;98437.66;4966382;28;20497;-84
2024/01/30 06:46:38;;;;;;;5.32;3.35;;;;;;;9.33;55.50;98441.03;4962979;28;20044;-83
2024/01/30 06:49:04;;;;;;;5.32;3.65;;;;;;;9.28;56.43;98447.88;4998456;28;20035;-85
2024/01/30 06:51:29;;;;;;;5.75;3.47;;;;;;;9.21;56.16;98450.47;4950761;28;20042;-85
2024/01/30 06:53:54;;;;;;;4.05;3.60;;;;;;;9.25;55.90;98446.44;5040396;28;20058;-84
2024/01/30 06:56:20;;;;;;;6.78;3.60;;;;;;;9.21;56.83;98439.28;4977734;28;20536;-85
2024/01/30 06:58:52;;;;;;;5.47;3.17;;;;;;;9.29;56.44;98445.06;4967084;28;20038;-84
2024/01/30 07:01:17;;;;;;;5.00;3.38;;;;;;;9.29;56.71;98455.47;4958232;28;20482;-85
2024/01/30 07:03:43;;;;;;;5.30;3.80;;;;;;;9.26;56.75;98455.06;4946679;28;20084;-84
2024/01/30 07:06:10;;;;;;;8.85;3.58;;;;;;;9.25;56.92;98454.25;4970865;28;20115;-85
2024/01/30 07:08:37;;;;;;;5.40;3.85;;;;;;;9.23;56.94;98458.06;4976060;28;20058;-83
2024/01/30 07:11:02;;;;;;;7.20;4.13;;;;;;;9.25;57.20;98459.44;4983638;28;20032;-79
2024/01/30 07:13:28;;;;;;;5.07;3.45;;;;;;;9.29;57.51;98462.47;5002843;28;20409;-79
2024/01/30 07:15:54;;;;;;;7.63;4.32;;;;;;;9.29;56.70;98459.88;4938431;28;20026;-79
2024/01/30 07:18:19;;;;;;;5.75;4.18;;;;;;;9.28;56.74;98460.84;4993251;28;20403;-79
2024/01/30 07:20:49;;;;;;;5.32;4.05;;;;;;;9.36;56.81;98471.81;4974563;28;20037;-80
2024/01/30 07:23:17;;;;;;;5.22;3.63;;;;;;;9.42;57.36;98472.81;4955401;28;20580;-79
2024/01/30 07:25:46;;;;;;;5.63;3.75;;;;;;;9.45;57.47;98477.59;4972262;28;20136;-79
2024/01/30 07:28:16;;;;;;;7.22;3.30;;;;;;;9.49;56.82;98472.78;5006683;28;20302;-79
2024/01/30 07:30:42;;;;;;;5.38;4.18;;;;;;;9.53;57.23;98474.78;4970074;28;20164;-79
2024/01/30 07:33:08;;;;;;;5.38;3.60;;;;;;;9.60;56.90;98474.75;4983635;28;20069;-79
2024/01/30 07:35:34;;;;;;;4.78;3.10;;;;;;;9.68;56.76;98481.53;4965948;28;20137;-80
2024/01/30 07:37:59;;;;;;;4.93;3.40;;;;;;;9.67;57.07;98475.53;4967528;28;20380;-79
2024/01/30 07:40:25;;;;;;;5.00;3.90;;;;;;;9.70;57.21;98480.31;4937127;28;20536;-79
2024/01/30 07:42:50;;;;;;;5.15;3.80;;;;;;;9.67;57.22;98479.94;4983369;28;20055;-79
2024/01/30 07:45:16;;;;;;;5.40;3.67;;;;;;;9.80;56.84;98477.28;4956264;28;20556;-79
2024/01/30 07:47:42;;;;;;;6.32;3.83;;;;;;;9.93;56.50;98482.41;4954125;28;20058;-79
2024/01/30 07:50:08;;;;;;;6.97;3.80;;;;;;;9.93;56.16;98485.00;4991191;28;20692;-83
2024/01/30 07:52:33;;;;;;;5.63;4.00;;;;;;;9.96;56.52;98483.81;4955313;28;20023;-84
2024/01/30 07:54:59;;;;;;;5.70;3.88;;;;;;;10.09;56.00;98477.72;4962927;28;20052;-81
2024/01/30 07:57:24;;;;;;;5.20;4.07;;;;;;;10.16;56.56;98472.50;4937769;28;20517;-84
2024/01/30 07:59:50;;;;;;;4.13;3.50;;;;;;;10.11;56.13;98481.75;4978492;28;20030;-86
2024/01/30 08:02:15;;;;;;;8.00;3.90;;;;;;;10.05;56.43;98486.97;4956861;28;20474;-85
2024/01/30 08:04:41;;;;;;;7.55;4.32;;;;;;;10.09;56.67;98488.13;4961866;28;20027;-85
2024/01/30 08:07:06;;;;;;;5.10;3.92;;;;;;;10.16;56.03;98494.13;4970877;28;20121;-82
2024/01/30 08:09:31;;;;;;;6.10;4.18;;;;;;;10.17;56.08;98493.09;4969547;28;20419;-83
2024/01/30 08:11:57;;;;;;;6.30;4.10;;;;;;;10.14;56.49;98490.91;4972313;28;20038;-85
2024/01/30 08:14:22;;;;;;;5.72;3.72;;;;;;;10.22;56.12;98493.28;4961747;28;20035;-86
2024/01/30 08:16:48;;;;;;;6.22;3.97;;;;;;;10.31;55.43;98491.22;4967169;28;20058;-85
2024/01/30 08:19:14;;;;;;;6.25;3.78;;;;;;;10.39;55.83;98503.25;4975190;28;20049;-79
2024/01/30 08:22:07;;;;;;;4.43;4.03;;;;;;;10.53;55.96;98501.34;4939905;28;20494;-79
2024/01/30 08:24:32;;;;;;;5.15;3.53;;;;;;;10.42;55.89;98497.63;4984522;28;20023;-79
2024/01/30 08:26:58;;;;;;;5.97;3.72;;;;;;;10.37;55.74;98494.84;4978133;28;20497;-79
2024/01/30 08:29:23;;;;;;;4.78;3.60;;;;;;;10.45;55.39;98498.00;4949681;28;20034;-80
2024/01/30 08:31:49;;;;;;;5.03;3.78;;;;;;;10.41;56.32;98493.41;4945414;28;20118;-79
2024/01/30 08:34:14;;;;;;;6.00;3.90;;;;;;;10.51;56.06;98501.56;4972100;28;20040;-79
2024/01/30 08:36:39;;;;;;;5.45;4.07;;;;;;;10.62;55.87;98508.66;4950186;28;20066;-80
2024/01/30 08:39:05;;;;;;;4.95;3.88;;;;;;;10.63;55.64;98499.84;4952820;28;20061;-79
2024/01/30 08:41:30;;;;;;;4.80;3.90;;;;;;;10.72;55.31;98502.22;4942618;28;20026;-79
2024/01/30 08:43:56;;;;;;;6.47;4.10;;;;;;;10.74;55.40;98506.19;4968444;28;20045;-79
2024/01/30 08:46:21;;;;;;;5.07;3.60;;;;;;;10.72;55.50;98499.59;4969406;28;20383;-79
2024/01/30 08:48:47;;;;;;;5.88;4.28;;;;;;;10.70;55.82;98504.22;4976310;28;20048;-79
2024/01/30 08:51:13;;;;;;;6.00;3.80;;;;;;;10.76;55.36;98504.19;4947392;28;20121;-79
2024/01/30 08:53:39;;;;;;;5.28;4.68;;;;;;;10.86;55.60;98496.69;4934781;28;20189;-79
2024/01/30 08:56:07;;;;;;;7.57;4.47;;;;;;;10.94;55.34;98503.44;4957757;28;20027;-80
2024/01/30 08:58:33;;;;;;;6.45;4.05;;;;;;;10.87;55.27;98497.47;4942945;28;20402;-79
2024/01/30 09:00:58;;;;;;;5.85;4.30;;;;;;;10.88;54.74;98499.06;4969505;28;20039;-79
2024/01/30 09:03:24;;;;;;;5.78;3.92;;;;;;;10.89;54.95;98492.84;4949894;28;20045;-79
2024/01/30 09:05:49;;;;;;;7.10;3.75;;;;;;;10.93;55.99;98488.78;4946945;28;20029;-79
2024/01/30 09:08:14;;;;;;;5.72;3.90;;;;;;;11.05;55.19;98491.50;4968818;28;20038;-79
2024/01/30 09:10:40;;;;;;;6.25;3.97;;;;;;;11.15;54.94;98501.44;4972942;28;20500;-85
2024/01/30 09:13:06;;;;;;;5.20;3.92;;;;;;;11.20;55.49;98491.97;4957127;28;20034;-86
2024/01/30 09:15:31;;;;;;;5.25;4.00;;;;;;;11.33;55.25;98496.25;4940805;28;20042;-85
2024/01/30 09:17:56;;;;;;;5.68;4.07;;;;;;;11.36;55.52;98506.25;4964965;28;20039;-84
2024/01/30 09:20:22;;;;;;;5.95;4.43;;;;;;;11.39;55.23;98499.81;4960397;28;20034;-84
2024/01/30 09:22:49;;;;;;;6.07;4.25;;;;;;;11.48;54.37;98502.91;4942301;28;20410;-86
2024/01/30 09:25:14;;;;;;;5.30;3.88;;;;;;;11.38;54.39;98500.84;4939974;28;20042;-85
2024/01/30 09:27:40;;;;;;;6.45;4.35;;;;;;;11.48;54.83;98501.13;4965795;28;20363;-85
2024/01/30 09:30:06;;;;;;;6.43;4.25;;;;;;;11.60;53.67;98509.00;4955874;28;20425;-85
2024/01/30 09:32:31;;;;;;;6.00;4.20;;;;;;;11.47;54.95;98520.38;4951094;28;20172;-84
2024/01/30 09:34:57;;;;;;;5.88;4.22;;;;;;;11.60;54.22;98509.81;4960524;28;20043;-86
2024/01/30 09:37:22;;;;;;;5.47;3.83;;;;;;;11.61;54.75;98516.63;4965139;28;20043;-84
2024/01/30 09:39:47;;;;;;;6.85;4.78;;;;;;;11.63;53.71;98524.22;4972762;28;20482;-84
2024/01/30 09:42:25;;;;;;;5.97;4.18;;;;;;;11.68;54.68;98526.19;4984214;28;20117;-83
2024/01/30 09:44:52;;;;;;;4.55;3.40;;;;;;;11.68;54.01;98519.16;4966213;28;20113;-86
2024/01/30 09:47:17;;;;;;;6.05;4.28;;;;;;;11.78;54.11;98527.25;4972638;28;20038;-87
2024/01/30 09:49:43;;;;;;;5.68;4.20;;;;;;;11.78;53.71;98524.66;4973071;28;20080;-86
2024/01/30 09:52:08;;;;;;;4.75;3.88;;;;;;;11.80;54.31;98524.44;4960317;28;20054;-83
2024/01/30 09:54:34;;;;;;;5.82;4.68;;;;;;;11.76;54.35;98524.09;4967825;28;20088;-84
2024/01/30 09:57:00;;;;;;;5.13;4.45;;;;;;;11.87;53.59;98525.16;4983617;28;20038;-81
2024/01/30 09:59:25;;;;;;;5.13;4.20;;;;;;;11.99;53.27;98528.69;4960596;28;20375;-82
2024/01/30 10:01:51;;;;;;;5.82;4.68;;;;;;;11.84;54.03;98524.78;4961806;28;20042;-84
2024/01/30 10:04:17;;;;;;;6.13;4.45;;;;;;;11.93;53.84;98523.53;4961359;28;20362;-83
2024/01/30 10:06:42;;;;;;;7.00;4.55;;;;;;;12.02;54.09;98516.97;4973161;28;20022;-84
2024/01/30 10:09:11;;;;;;;5.75;3.92;;;;;;;12.01;53.50;98519.81;4953184;28;20035;-85
2024/01/30 10:11:36;;;;;;;6.60;5.13;;;;;;;12.09;53.54;98522.91;4954238;28;20067;-85
2024/01/30 10:14:02;;;;;;;5.75;4.45;;;;;;;12.22;52.96;98524.56;4935342;28;20069;-83
2024/01/30 10:16:28;;;;;;;7.28;4.40;;;;;;;12.42;54.09;98515.66;4959466;28;20398;-84
2024/01/30 10:18:53;;;;;;;5.47;3.90;;;;;;;12.59;53.26;98521.81;4994309;28;20508;-85
2024/01/30 10:21:18;;;;;;;7.00;4.50;;;;;;;12.62;53.16;98529.22;4950056;28;20042;-79
2024/01/30 10:23:47;;;;;;;5.55;4.60;;;;;;;12.70;52.82;98530.72;4945775;28;20043;-79
2024/01/30 10:26:12;;;;;;;6.03;4.82;;;;;;;12.82;52.00;98525.53;4948429;28;20031;-79
2024/01/30 10:28:38;;;;;;;6.20;4.35;;;;;;;12.72;52.92;98526.06;4981132;28;20053;-79
2024/01/30 10:31:03;;;;;;;6.53;4.60;;;;;;;12.62;52.97;98524.00;4965934;28;20037;-78
2024/01/30 10:33:30;;;;;;;5.53;4.00;;;;;;;12.66;53.19;98537.41;4950913;28;20032;-79
2024/01/30 10:36:03;;;;;;;7.28;4.50;;;;;;;12.68;53.03;98536.19;4969490;28;20107;-79
2024/01/30 10:38:29;;;;;;;6.50;4.47;;;;;;;12.41;53.75;98535.75;4966966;28;20050;-79
2024/01/30 10:40:59;;;;;;;5.18;4.63;;;;;;;12.46;53.34;98538.50;4936769;28;20065;-85
2024/01/30 10:43:34;;;;;;;6.63;4.60;;;;;;;12.51;53.32;98536.03;4961928;28;20043;-82
2024/01/30 10:46:12;;;;;;;5.45;4.38;;;;;;;12.38;53.76;98538.81;4965605;28;20065;-83
2024/01/30 10:48:44;;;;;;;7.10;4.78;;;;;;;12.55;53.00;98544.22;4953347;28;20033;-86
2024/01/30 10:51:10;;;;;;;6.55;4.35;;;;;;;12.39;53.88;98543.03;4978983;28;20042;-83
2024/01/30 10:53:36;;;;;;;5.53;4.30;;;;;;;12.47;53.51;98541.91;4970324;28;20485;-86
2024/01/30 10:56:03;;;;;;;5.40;4.30;;;;;;;12.46;53.54;98533.28;4964971;28;20047;-85
2024/01/30 10:58:29;;;;;;;6.10;4.57;;;;;;;12.34;53.93;98535.06;4942419;28;20369;-82
2024/01/30 11:00:54;;;;;;;6.60;4.72;;;;;;;12.43;54.62;98533.72;4957634;28;20034;-85
2024/01/30 11:03:21;;;;;;;9.23;4.93;;;;;;;12.47;53.89;98518.41;4956121;28;20046;-86
2024/01/30 11:05:51;;;;;;;5.47;4.53;;;;;;;12.52;53.98;98524.53;4982340;28;20406;-86
2024/01/30 11:08:24;;;;;;;6.18;4.50;;;;;;;12.57;53.92;98530.91;4958370;28;20070;-84
2024/01/30 11:10:49;;;;;;;7.18;4.72;;;;;;;12.40;54.60;98526.31;4960633;28;20098;-86
2024/01/30 11:13:15;;;;;;;7.07;5.20;;;;;;;12.37;54.55;98524.16;4968169;28;20072;-85
2024/01/30 11:15:41;;;;;;;5.90;4.32;;;;;;;12.42;55.04;98521.66;4985072;28;20062;-84
2024/01/30 11:18:06;;;;;;;6.65;5.00;;;;;;;12.41;54.32;98512.25;5026805;28;20506;-84
2024/01/30 11:20:32;;;;;;;6.53;5.05;;;;;;;12.37;55.38;98518.91;4962703;28;20069;-85
2024/01/30 11:23:05;;;;;;;6.93;4.20;;;;;;;12.47;55.35;98513.16;4955745;28;20035;-84
2024/01/30 11:25:31;;;;;;;6.22;4.60;;;;;;;12.51;54.84;98509.91;4967145;28;20034;-85
2024/01/30 11:27:57;;;;;;;8.30;5.22;;;;;;;12.43;54.88;98506.81;4967302;28;20039;-86
2024/01/30 11:30:28;;;;;;;6.95;4.78;;;;;;;12.55;54.54;98510.25;4957360;28;20023;-84
2024/01/30 11:33:13;;;;;;;6.43;4.50;;;;;;;12.63;54.21;98511.72;4970188;28;20031;-86